createdAt,value
2018-09-21T00:00:01.235Z,0
2018-09-21T00:00:33.283Z,0
2018-09-21T00:01:05.388Z,0
2018-09-21T00:01:37.476Z,0
2018-09-21T00:02:09.569Z,0
2018-09-21T00:02:41.597Z,0
2018-09-21T00:03:13.661Z,0
2018-09-21T00:03:45.724Z,0
2018-09-21T00:04:17.899Z,0
2018-09-21T00:04:49.989Z,0
2018-09-21T00:05:22.042Z,0
2018-09-21T00:05:54.100Z,0
2018-09-21T00:06:26.141Z,0
2018-09-21T00:06:58.258Z,0
2018-09-21T00:07:30.356Z,0
2018-09-21T00:08:02.462Z,0
2018-09-21T00:08:34.566Z,0
2018-09-21T00:09:06.658Z,0
2018-09-21T00:09:38.643Z,0
2018-09-21T00:10:10.687Z,0
2018-09-21T00:10:42.753Z,0
2018-09-21T00:11:14.858Z,0
2018-09-21T00:11:46.926Z,0
2018-09-21T00:12:18.958Z,0
2018-09-21T00:12:51.047Z,0
2018-09-21T00:13:23.123Z,0
2018-09-21T00:13:55.175Z,0
2018-09-21T00:14:27.237Z,0
2018-09-21T00:14:59.328Z,0
2018-09-21T00:15:31.382Z,0
2018-09-21T00:16:03.464Z,0
2018-09-21T00:16:35.534Z,0
2018-09-21T00:17:07.631Z,0
2018-09-21T00:17:39.679Z,0
2018-09-21T00:18:11.737Z,0
2018-09-21T00:18:43.819Z,0
2018-09-21T00:19:15.846Z,0
2018-09-21T00:19:48.067Z,0
2018-09-21T00:20:20.249Z,0
2018-09-21T00:20:52.443Z,0
2018-09-21T00:21:24.549Z,0
2018-09-21T00:21:56.756Z,0
2018-09-21T00:22:28.810Z,0
2018-09-21T00:23:00.991Z,0
2018-09-21T00:23:33.118Z,0
2018-09-21T00:24:05.186Z,0
2018-09-21T00:24:37.276Z,0
2018-09-21T00:25:09.344Z,0
2018-09-21T00:25:41.381Z,0
2018-09-21T00:26:13.436Z,0
2018-09-21T00:26:45.486Z,0
2018-09-21T00:27:17.540Z,0
2018-09-21T00:27:49.629Z,0
2018-09-21T00:28:21.746Z,0
2018-09-21T00:28:53.777Z,0
2018-09-21T00:29:25.870Z,0
2018-09-21T00:29:57.954Z,0
2018-09-21T00:30:29.981Z,0
2018-09-21T00:31:02.048Z,0
2018-09-21T00:31:34.221Z,0
2018-09-21T00:32:06.253Z,0
2018-09-21T00:32:38.358Z,0
2018-09-21T00:33:10.413Z,0
2018-09-21T00:33:42.483Z,0
2018-09-21T00:34:14.570Z,0
2018-09-21T00:34:46.648Z,0
2018-09-21T00:35:18.763Z,0
2018-09-21T00:35:50.838Z,0
2018-09-21T00:36:22.898Z,0
2018-09-21T00:36:54.995Z,0
2018-09-21T00:37:27.141Z,0
2018-09-21T00:37:59.221Z,0
2018-09-21T00:38:31.269Z,0
2018-09-21T00:39:03.300Z,0
2018-09-21T00:39:35.393Z,0
2018-09-21T00:40:07.446Z,0
2018-09-21T00:40:39.479Z,0
2018-09-21T00:41:11.511Z,0
2018-09-21T00:41:43.581Z,0
2018-09-21T00:42:15.640Z,0
2018-09-21T00:42:47.793Z,0
2018-09-21T00:43:19.860Z,0
2018-09-21T00:43:51.925Z,0
2018-09-21T00:44:23.977Z,0
2018-09-21T00:44:56.051Z,0
2018-09-21T00:45:28.144Z,0
2018-09-21T00:46:00.289Z,0
2018-09-21T00:46:32.378Z,0
2018-09-21T00:47:04.449Z,0
2018-09-21T00:47:36.522Z,0
2018-09-21T00:48:08.553Z,0
2018-09-21T00:48:40.621Z,0
2018-09-21T00:49:12.726Z,0
2018-09-21T00:49:44.773Z,0
2018-09-21T00:50:16.828Z,0
2018-09-21T00:50:48.874Z,0
2018-09-21T00:51:20.953Z,0
2018-09-21T00:51:53.018Z,0
2018-09-21T00:52:25.088Z,0
2018-09-21T00:52:57.187Z,0
2018-09-21T00:53:29.243Z,0
2018-09-21T00:54:01.258Z,0
2018-09-21T00:54:33.367Z,0
2018-09-21T00:55:05.408Z,0
2018-09-21T00:55:37.473Z,0
2018-09-21T00:56:09.537Z,0
2018-09-21T00:56:41.590Z,0
2018-09-21T00:57:13.703Z,0
2018-09-21T00:57:45.768Z,0
2018-09-21T00:58:17.834Z,0
2018-09-21T00:58:49.931Z,0
2018-09-21T00:59:21.960Z,0
2018-09-21T00:59:54.167Z,0
2018-09-21T01:00:26.205Z,0
2018-09-21T01:00:58.255Z,0
2018-09-21T01:01:30.326Z,0
2018-09-21T01:02:02.401Z,0
2018-09-21T01:02:34.521Z,0
2018-09-21T01:03:07.426Z,0
2018-09-21T01:03:39.459Z,0
2018-09-21T01:04:11.575Z,0
2018-09-21T01:04:43.622Z,0
2018-09-21T01:05:15.675Z,0
2018-09-21T01:05:47.796Z,0
2018-09-21T01:06:19.882Z,0
2018-09-21T01:06:51.954Z,0
2018-09-21T01:07:24.030Z,0
2018-09-21T01:07:56.067Z,0
2018-09-21T01:08:28.131Z,0
2018-09-21T01:09:00.138Z,0
2018-09-21T01:09:32.226Z,0
2018-09-21T01:10:04.287Z,0
2018-09-21T01:10:36.349Z,0
2018-09-21T01:11:08.392Z,0
2018-09-21T01:11:40.450Z,0
2018-09-21T01:12:12.485Z,0
2018-09-21T01:12:45.337Z,0
2018-09-21T01:13:17.401Z,0
2018-09-21T01:13:49.444Z,0
2018-09-21T01:14:21.483Z,0
2018-09-21T01:14:53.502Z,0
2018-09-21T01:15:25.574Z,0
2018-09-21T01:15:57.644Z,0
2018-09-21T01:16:29.721Z,0
2018-09-21T01:17:01.795Z,0
2018-09-21T01:17:33.868Z,0
2018-09-21T01:18:05.930Z,0
2018-09-21T01:18:38.027Z,0
2018-09-21T01:19:10.110Z,0
2018-09-21T01:19:42.210Z,0
2018-09-21T01:20:14.264Z,0
2018-09-21T01:20:46.324Z,0
2018-09-21T01:21:18.392Z,0
2018-09-21T01:21:50.471Z,0
2018-09-21T01:22:22.511Z,0
2018-09-21T01:22:54.585Z,0
2018-09-21T01:23:26.798Z,0
2018-09-21T01:23:58.955Z,0
2018-09-21T01:24:30.989Z,0
2018-09-21T01:25:03.013Z,0
2018-09-21T01:25:35.065Z,0
2018-09-21T01:26:07.209Z,0
2018-09-21T01:26:39.300Z,0
2018-09-21T01:27:11.332Z,0
2018-09-21T01:27:43.349Z,0
2018-09-21T01:28:15.421Z,0
2018-09-21T01:28:47.592Z,0
2018-09-21T01:29:19.691Z,0
2018-09-21T01:29:51.909Z,0
2018-09-21T01:30:23.961Z,0
2018-09-21T01:30:55.967Z,0
2018-09-21T01:31:28.026Z,0
2018-09-21T01:32:00.082Z,0
2018-09-21T01:32:32.117Z,0
2018-09-21T01:33:04.197Z,0
2018-09-21T01:33:36.212Z,0
2018-09-21T01:34:08.232Z,0
2018-09-21T01:34:40.333Z,0
2018-09-21T01:35:12.368Z,0
2018-09-21T01:35:44.469Z,0
2018-09-21T01:36:16.560Z,0
2018-09-21T01:36:48.596Z,0
2018-09-21T01:37:20.689Z,0
2018-09-21T01:37:52.721Z,0
2018-09-21T01:38:24.790Z,0
2018-09-21T01:38:56.903Z,0
2018-09-21T01:39:28.938Z,0
2018-09-21T01:40:01.657Z,0
2018-09-21T01:40:33.748Z,0
2018-09-21T01:41:07.166Z,0
2018-09-21T01:41:39.212Z,0
2018-09-21T01:42:11.281Z,0
2018-09-21T01:42:43.352Z,0
2018-09-21T01:43:15.482Z,0
2018-09-21T01:43:47.534Z,0
2018-09-21T01:44:19.590Z,0
2018-09-21T01:44:51.639Z,0
2018-09-21T01:45:23.699Z,0
2018-09-21T01:45:55.769Z,0
2018-09-21T01:46:27.799Z,0
2018-09-21T01:46:59.909Z,0
2018-09-21T01:47:32.008Z,0
2018-09-21T01:48:04.080Z,0
2018-09-21T01:48:36.201Z,0
2018-09-21T01:49:08.314Z,0
2018-09-21T01:49:40.344Z,0
2018-09-21T01:50:12.420Z,0
2018-09-21T01:50:44.483Z,0
2018-09-21T01:51:16.516Z,0
2018-09-21T01:51:48.581Z,0
2018-09-21T01:52:20.675Z,0
2018-09-21T01:52:52.720Z,0
2018-09-21T01:53:24.818Z,0
2018-09-21T01:53:56.934Z,0
2018-09-21T01:54:29.021Z,0
2018-09-21T01:55:01.171Z,0
2018-09-21T01:55:33.180Z,0
2018-09-21T01:56:05.241Z,0
2018-09-21T01:56:37.308Z,0
2018-09-21T01:57:09.426Z,0
2018-09-21T01:57:41.534Z,0
2018-09-21T01:58:13.583Z,0
2018-09-21T01:58:45.596Z,0
2018-09-21T01:59:17.685Z,0
2018-09-21T01:59:50.752Z,0
2018-09-21T02:00:22.821Z,0
2018-09-21T02:00:54.911Z,0
2018-09-21T02:01:27.017Z,0
2018-09-21T02:01:59.080Z,0
2018-09-21T02:02:31.195Z,0
2018-09-21T02:03:03.265Z,0
2018-09-21T02:03:35.331Z,0
2018-09-21T02:04:07.419Z,0
2018-09-21T02:04:39.487Z,0
2018-09-21T02:05:11.618Z,0
2018-09-21T02:05:43.797Z,0
2018-09-21T02:06:15.918Z,0
2018-09-21T02:06:48.003Z,0
2018-09-21T02:07:20.085Z,0
2018-09-21T02:07:52.203Z,0
2018-09-21T02:08:24.306Z,0
2018-09-21T02:08:56.369Z,0
2018-09-21T02:09:28.441Z,0
2018-09-21T02:10:00.609Z,0
2018-09-21T02:10:32.639Z,0
2018-09-21T02:11:04.717Z,0
2018-09-21T02:11:36.781Z,0
2018-09-21T02:12:08.854Z,0
2018-09-21T02:12:40.983Z,0
2018-09-21T02:13:13.039Z,0
2018-09-21T02:13:45.083Z,0
2018-09-21T02:14:17.150Z,0
2018-09-21T02:14:49.269Z,0
2018-09-21T02:15:21.334Z,0
2018-09-21T02:15:53.475Z,0
2018-09-21T02:16:25.546Z,0
2018-09-21T02:16:57.580Z,0
2018-09-21T02:17:29.680Z,0
2018-09-21T02:18:01.713Z,0
2018-09-21T02:18:33.830Z,0
2018-09-21T02:19:05.911Z,0
2018-09-21T02:19:37.978Z,0
2018-09-21T02:20:10.077Z,0
2018-09-21T02:20:42.115Z,0
2018-09-21T02:21:14.341Z,0
2018-09-21T02:21:46.448Z,0
2018-09-21T02:22:18.509Z,0
2018-09-21T02:22:50.600Z,0
2018-09-21T02:23:23.263Z,0
2018-09-21T02:23:55.355Z,0
2018-09-21T02:24:27.415Z,0
2018-09-21T02:24:59.537Z,0
2018-09-21T02:25:31.573Z,0
2018-09-21T02:26:03.642Z,0
2018-09-21T02:26:35.720Z,0
2018-09-21T02:27:08.006Z,0
2018-09-21T02:27:40.062Z,0
2018-09-21T02:28:12.170Z,0
2018-09-21T02:28:44.182Z,0
2018-09-21T02:29:16.229Z,0
2018-09-21T02:29:48.309Z,0
2018-09-21T02:30:20.399Z,0
2018-09-21T02:30:52.476Z,0
2018-09-21T02:31:24.585Z,0
2018-09-21T02:31:56.638Z,0
2018-09-21T02:32:28.728Z,0
2018-09-21T02:33:00.794Z,0
2018-09-21T02:33:32.865Z,0
2018-09-21T02:34:04.960Z,0
2018-09-21T02:34:37.031Z,0
2018-09-21T02:35:09.245Z,0
2018-09-21T02:35:41.334Z,0
2018-09-21T02:36:13.367Z,0
2018-09-21T02:36:45.437Z,0
2018-09-21T02:37:17.494Z,0
2018-09-21T02:37:49.627Z,0
2018-09-21T02:38:21.674Z,0
2018-09-21T02:38:53.764Z,0
2018-09-21T02:39:25.879Z,0
2018-09-21T02:39:57.977Z,0
2018-09-21T02:40:30.055Z,0
2018-09-21T02:41:02.225Z,0
2018-09-21T02:41:34.700Z,0
2018-09-21T02:42:06.742Z,0
2018-09-21T02:42:38.874Z,0
2018-09-21T02:43:10.956Z,0
2018-09-21T02:43:43.006Z,0
2018-09-21T02:44:15.042Z,0
2018-09-21T02:44:47.042Z,0
2018-09-21T02:45:19.135Z,0
2018-09-21T02:45:51.179Z,0
2018-09-21T02:46:23.237Z,0
2018-09-21T02:46:55.236Z,0
2018-09-21T02:47:27.293Z,0
2018-09-21T02:47:59.292Z,0
2018-09-21T02:48:31.387Z,0
2018-09-21T02:49:03.597Z,0
2018-09-21T02:49:35.710Z,0
2018-09-21T02:50:07.731Z,0
2018-09-21T02:50:39.816Z,0
2018-09-21T02:51:11.884Z,0
2018-09-21T02:51:44.003Z,0
2018-09-21T02:52:16.987Z,0
2018-09-21T02:52:49.073Z,0
2018-09-21T02:53:21.232Z,0
2018-09-21T02:53:53.285Z,0
2018-09-21T02:54:25.348Z,0
2018-09-21T02:54:57.399Z,0
2018-09-21T02:55:29.495Z,0
2018-09-21T02:56:01.593Z,0
2018-09-21T02:56:33.682Z,0
2018-09-21T02:57:05.820Z,0
2018-09-21T02:57:38.006Z,0
2018-09-21T02:58:10.137Z,0
2018-09-21T02:58:42.136Z,0
2018-09-21T02:59:14.208Z,0
2018-09-21T02:59:46.301Z,0
2018-09-21T03:00:18.426Z,0
2018-09-21T03:00:51.493Z,0
2018-09-21T03:01:23.388Z,0
2018-09-21T03:01:55.453Z,0
2018-09-21T03:02:27.480Z,0
2018-09-21T03:02:59.532Z,0
2018-09-21T03:03:31.628Z,0
2018-09-21T03:04:03.766Z,0
2018-09-21T03:04:35.853Z,0
2018-09-21T03:05:07.929Z,0
2018-09-21T03:05:40.044Z,0
2018-09-21T03:06:12.083Z,0
2018-09-21T03:06:44.161Z,0
2018-09-21T03:07:16.296Z,0
2018-09-21T03:07:48.329Z,0
2018-09-21T03:08:20.352Z,0
2018-09-21T03:08:52.410Z,0
2018-09-21T03:09:24.485Z,0
2018-09-21T03:09:56.637Z,0
2018-09-21T03:10:28.752Z,0
2018-09-21T03:11:00.721Z,0
2018-09-21T03:11:32.716Z,0
2018-09-21T03:12:04.813Z,0
2018-09-21T03:12:36.946Z,0
2018-09-21T03:13:09.196Z,0
2018-09-21T03:13:41.240Z,0
2018-09-21T03:14:13.370Z,0
2018-09-21T03:14:45.496Z,0
2018-09-21T03:15:17.555Z,0
2018-09-21T03:15:49.621Z,0
2018-09-21T03:16:21.700Z,0
2018-09-21T03:16:53.712Z,0
2018-09-21T03:17:25.767Z,0
2018-09-21T03:17:57.842Z,0
2018-09-21T03:18:29.895Z,0
2018-09-21T03:19:01.962Z,0
2018-09-21T03:19:34.036Z,0
2018-09-21T03:20:06.136Z,0
2018-09-21T03:20:38.169Z,0
2018-09-21T03:21:10.267Z,0
2018-09-21T03:21:42.334Z,0
2018-09-21T03:22:14.429Z,0
2018-09-21T03:22:46.507Z,0
2018-09-21T03:23:18.578Z,0
2018-09-21T03:23:50.643Z,0
2018-09-21T03:24:22.730Z,0
2018-09-21T03:24:54.805Z,0
2018-09-21T03:25:26.881Z,0
2018-09-21T03:25:59.023Z,0
2018-09-21T03:26:31.101Z,0
2018-09-21T03:27:03.171Z,0
2018-09-21T03:27:35.278Z,0
2018-09-21T03:28:07.318Z,0
2018-09-21T03:28:39.468Z,0
2018-09-21T03:29:11.606Z,0
2018-09-21T03:29:43.747Z,0
2018-09-21T03:30:15.762Z,0
2018-09-21T03:30:47.855Z,0
2018-09-21T03:31:19.914Z,0
2018-09-21T03:31:52.035Z,0
2018-09-21T03:32:24.228Z,0
2018-09-21T03:32:56.338Z,0
2018-09-21T03:33:28.452Z,0
2018-09-21T03:34:00.488Z,0
2018-09-21T03:34:32.612Z,0
2018-09-21T03:35:05.382Z,0
2018-09-21T03:35:37.452Z,0
2018-09-21T03:36:09.528Z,0
2018-09-21T03:36:41.556Z,0
2018-09-21T03:37:13.646Z,0
2018-09-21T03:37:45.677Z,0
2018-09-21T03:38:17.735Z,0
2018-09-21T03:38:49.852Z,0
2018-09-21T03:39:21.943Z,0
2018-09-21T03:39:54.014Z,0
2018-09-21T03:40:26.089Z,0
2018-09-21T03:40:58.131Z,0
2018-09-21T03:41:30.194Z,0
2018-09-21T03:42:02.259Z,0
2018-09-21T03:42:34.338Z,0
2018-09-21T03:43:06.371Z,0
2018-09-21T03:43:38.441Z,0
2018-09-21T03:44:10.631Z,0
2018-09-21T03:44:42.792Z,0
2018-09-21T03:45:14.870Z,0
2018-09-21T03:45:46.925Z,0
2018-09-21T03:46:19.004Z,0
2018-09-21T03:46:51.100Z,0
2018-09-21T03:47:23.145Z,0
2018-09-21T03:47:55.237Z,0
2018-09-21T03:48:27.317Z,0
2018-09-21T03:48:59.364Z,0
2018-09-21T03:49:31.431Z,0
2018-09-21T03:50:03.511Z,0
2018-09-21T03:50:35.572Z,0
2018-09-21T03:51:07.668Z,0
2018-09-21T03:51:39.796Z,0
2018-09-21T03:52:11.884Z,0
2018-09-21T03:52:43.937Z,0
2018-09-21T03:53:15.988Z,0
2018-09-21T03:53:48.082Z,0
2018-09-21T03:54:20.179Z,0
2018-09-21T03:54:52.907Z,0
2018-09-21T03:55:24.952Z,0
2018-09-21T03:55:57.015Z,0
2018-09-21T03:56:29.097Z,0
2018-09-21T03:57:01.132Z,0
2018-09-21T03:57:33.203Z,0
2018-09-21T03:58:05.271Z,0
2018-09-21T03:58:37.380Z,0
2018-09-21T03:59:09.438Z,0
2018-09-21T03:59:41.484Z,0
2018-09-21T04:00:13.560Z,0
2018-09-21T04:00:45.716Z,0
2018-09-21T04:01:17.904Z,0
2018-09-21T04:01:50.002Z,0
2018-09-21T04:02:22.088Z,0
2018-09-21T04:02:54.942Z,0
2018-09-21T04:03:26.980Z,0
2018-09-21T04:03:59.054Z,0
2018-09-21T04:04:31.152Z,0
2018-09-21T04:05:03.249Z,0
2018-09-21T04:05:35.332Z,0
2018-09-21T04:06:07.513Z,0
2018-09-21T04:06:39.587Z,0
2018-09-21T04:07:11.585Z,0
2018-09-21T04:07:43.604Z,0
2018-09-21T04:08:15.615Z,0
2018-09-21T04:08:47.692Z,0
2018-09-21T04:09:19.767Z,0
2018-09-21T04:09:51.828Z,0
2018-09-21T04:10:23.912Z,0
2018-09-21T04:10:56.027Z,0
2018-09-21T04:11:28.166Z,0
2018-09-21T04:12:00.198Z,0
2018-09-21T04:12:32.268Z,0
2018-09-21T04:13:04.298Z,0
2018-09-21T04:13:36.369Z,0
2018-09-21T04:14:08.514Z,0
2018-09-21T04:14:40.649Z,0
2018-09-21T04:15:12.699Z,0
2018-09-21T04:15:44.766Z,0
2018-09-21T04:16:16.818Z,0
2018-09-21T04:16:48.853Z,0
2018-09-21T04:17:21.064Z,0
2018-09-21T04:17:53.190Z,0
2018-09-21T04:18:26.258Z,0
2018-09-21T04:18:58.376Z,0
2018-09-21T04:19:30.448Z,0
2018-09-21T04:20:02.504Z,0
2018-09-21T04:20:34.546Z,0
2018-09-21T04:21:06.629Z,0
2018-09-21T04:21:38.704Z,0
2018-09-21T04:22:10.710Z,0
2018-09-21T04:22:42.736Z,0
2018-09-21T04:23:14.822Z,0
2018-09-21T04:23:46.932Z,0
2018-09-21T04:24:19.015Z,0
2018-09-21T04:24:51.014Z,0
2018-09-21T04:25:23.058Z,0
2018-09-21T04:25:55.140Z,0
2018-09-21T04:26:27.223Z,0
2018-09-21T04:26:59.288Z,0
2018-09-21T04:27:31.279Z,0
2018-09-21T04:28:03.339Z,0
2018-09-21T04:28:35.444Z,0
2018-09-21T04:29:07.545Z,0
2018-09-21T04:29:39.689Z,0
2018-09-21T04:30:11.738Z,0
2018-09-21T04:30:43.810Z,0
2018-09-21T04:31:15.854Z,0
2018-09-21T04:31:48.007Z,0
2018-09-21T04:32:20.109Z,0
2018-09-21T04:32:52.165Z,0
2018-09-21T04:33:24.261Z,0
2018-09-21T04:33:56.360Z,0
2018-09-21T04:34:28.470Z,0
2018-09-21T04:35:00.485Z,0
2018-09-21T04:35:32.573Z,0
2018-09-21T04:36:04.807Z,0
2018-09-21T04:36:36.784Z,0
2018-09-21T04:37:08.981Z,0
2018-09-21T04:37:41.058Z,0
2018-09-21T04:38:13.139Z,0
2018-09-21T04:38:45.188Z,0
2018-09-21T04:39:17.244Z,0
2018-09-21T04:39:49.280Z,0
2018-09-21T04:40:21.294Z,0
2018-09-21T04:40:53.385Z,0
2018-09-21T04:41:25.541Z,0
2018-09-21T04:41:57.641Z,0
2018-09-21T04:42:29.737Z,0
2018-09-21T04:43:01.785Z,0
2018-09-21T04:43:33.844Z,0
2018-09-21T04:44:05.862Z,0
2018-09-21T04:44:37.877Z,0
2018-09-21T04:45:09.968Z,0
2018-09-21T04:45:42.067Z,0
2018-09-21T04:46:14.109Z,0
2018-09-21T04:46:46.171Z,0
2018-09-21T04:47:18.306Z,0
2018-09-21T04:47:50.338Z,0
2018-09-21T04:48:22.530Z,0
2018-09-21T04:48:54.579Z,0
2018-09-21T04:49:26.674Z,0
2018-09-21T04:49:58.766Z,0
2018-09-21T04:50:30.850Z,0
2018-09-21T04:51:02.886Z,0
2018-09-21T04:51:34.931Z,0
2018-09-21T04:52:06.993Z,0
2018-09-21T04:52:39.089Z,0
2018-09-21T04:53:11.203Z,0
2018-09-21T04:53:43.302Z,0
2018-09-21T04:54:15.392Z,0
2018-09-21T04:54:47.466Z,0
2018-09-21T04:55:19.543Z,0
2018-09-21T04:55:51.627Z,0
2018-09-21T04:56:23.702Z,0
2018-09-21T04:56:55.776Z,0
2018-09-21T04:57:28.582Z,0
2018-09-21T04:58:00.647Z,0
2018-09-21T04:58:32.745Z,0
2018-09-21T04:59:04.814Z,0
2018-09-21T04:59:36.905Z,0
2018-09-21T05:00:08.977Z,0
2018-09-21T05:00:41.005Z,0
2018-09-21T05:01:13.075Z,0
2018-09-21T05:01:45.152Z,0
2018-09-21T05:02:17.188Z,0
2018-09-21T05:02:49.237Z,0
2018-09-21T05:03:21.312Z,0
2018-09-21T05:03:53.346Z,0
2018-09-21T05:04:25.565Z,0
2018-09-21T05:04:57.590Z,0
2018-09-21T05:05:29.621Z,0
2018-09-21T05:06:01.626Z,0
2018-09-21T05:06:33.651Z,0
2018-09-21T05:07:05.720Z,0
2018-09-21T05:07:37.746Z,0
2018-09-21T05:08:09.745Z,0
2018-09-21T05:08:41.886Z,0
2018-09-21T05:09:13.957Z,0
2018-09-21T05:09:46.055Z,0
2018-09-21T05:10:18.077Z,0
2018-09-21T05:10:50.118Z,0
2018-09-21T05:11:22.146Z,0
2018-09-21T05:11:54.977Z,0
2018-09-21T05:12:27.025Z,0
2018-09-21T05:12:59.052Z,0
2018-09-21T05:13:31.098Z,0
2018-09-21T05:14:03.231Z,0
2018-09-21T05:14:35.308Z,0
2018-09-21T05:15:07.379Z,0
2018-09-21T05:15:39.473Z,0
2018-09-21T05:16:11.679Z,0
2018-09-21T05:16:43.765Z,0
2018-09-21T05:17:15.806Z,0
2018-09-21T05:17:47.858Z,0
2018-09-21T05:18:20.572Z,0
2018-09-21T05:18:52.648Z,0
2018-09-21T05:19:24.749Z,0
2018-09-21T05:19:56.994Z,0
2018-09-21T05:20:28.905Z,0
2018-09-21T05:21:00.964Z,0
2018-09-21T05:21:33.105Z,0
2018-09-21T05:22:05.158Z,0
2018-09-21T05:22:37.235Z,0
2018-09-21T05:23:09.267Z,0
2018-09-21T05:23:41.324Z,0
2018-09-21T05:24:13.394Z,0
2018-09-21T05:24:45.413Z,0
2018-09-21T05:25:17.434Z,0
2018-09-21T05:25:49.472Z,0
2018-09-21T05:26:21.607Z,0
2018-09-21T05:26:53.828Z,5
2018-09-21T05:27:26.070Z,5
2018-09-21T05:27:58.103Z,5
2018-09-21T05:28:30.177Z,5
2018-09-21T05:29:02.349Z,5
2018-09-21T05:29:34.538Z,5
2018-09-21T05:30:06.572Z,5
2018-09-21T05:30:38.662Z,5
2018-09-21T05:31:10.729Z,5
2018-09-21T05:31:42.747Z,5
2018-09-21T05:32:14.817Z,5
2018-09-21T05:32:46.858Z,5
2018-09-21T05:33:18.952Z,5
2018-09-21T05:33:51.027Z,5
2018-09-21T05:34:23.115Z,5
2018-09-21T05:34:55.287Z,5
2018-09-21T05:35:27.385Z,5
2018-09-21T05:36:00.285Z,5
2018-09-21T05:36:32.325Z,5
2018-09-21T05:37:04.523Z,5
2018-09-21T05:37:36.658Z,5
2018-09-21T05:38:08.886Z,5
2018-09-21T05:38:41.061Z,5
2018-09-21T05:39:13.061Z,5
2018-09-21T05:39:45.166Z,10
2018-09-21T05:40:17.235Z,10
2018-09-21T05:40:49.303Z,10
2018-09-21T05:41:21.443Z,10
2018-09-21T05:41:53.593Z,10
2018-09-21T05:42:25.654Z,10
2018-09-21T05:42:57.843Z,10
2018-09-21T05:43:29.994Z,10
2018-09-21T05:44:02.132Z,10
2018-09-21T05:44:34.172Z,10
2018-09-21T05:45:06.260Z,15
2018-09-21T05:45:38.402Z,15
2018-09-21T05:46:10.482Z,15
2018-09-21T05:46:44.210Z,15
2018-09-21T05:47:18.973Z,15
2018-09-21T05:47:51.099Z,15
2018-09-21T05:48:23.206Z,15
2018-09-21T05:48:55.380Z,15
2018-09-21T05:49:27.411Z,15
2018-09-21T05:49:59.399Z,15
2018-09-21T05:50:31.523Z,15
2018-09-21T05:51:03.568Z,15
2018-09-21T05:51:35.664Z,15
2018-09-21T05:52:07.765Z,15
2018-09-21T05:52:39.810Z,15
2018-09-21T05:53:11.856Z,15
2018-09-21T05:53:44.704Z,15
2018-09-21T05:54:16.728Z,15
2018-09-21T05:54:48.771Z,15
2018-09-21T05:55:20.891Z,15
2018-09-21T05:55:52.936Z,15
2018-09-21T05:56:25.151Z,15
2018-09-21T05:56:57.283Z,15
2018-09-21T05:57:29.353Z,15
2018-09-21T05:58:01.511Z,15
2018-09-21T05:58:33.573Z,15
2018-09-21T05:59:05.602Z,15
2018-09-21T05:59:37.647Z,15
2018-09-21T06:00:09.708Z,15
2018-09-21T06:00:42.632Z,15
2018-09-21T06:01:14.748Z,15
2018-09-21T06:01:46.794Z,20
2018-09-21T06:02:18.972Z,20
2018-09-21T06:02:51.061Z,20
2018-09-21T06:03:23.149Z,25
2018-09-21T06:03:55.233Z,30
2018-09-21T06:04:27.288Z,30
2018-09-21T06:04:59.407Z,30
2018-09-21T06:05:31.462Z,20
2018-09-21T06:06:03.507Z,20
2018-09-21T06:06:35.573Z,15
2018-09-21T06:07:07.654Z,15
2018-09-21T06:07:39.829Z,15
2018-09-21T06:08:11.914Z,10
2018-09-21T06:08:43.963Z,10
2018-09-21T06:09:16.116Z,15
2018-09-21T06:09:48.192Z,15
2018-09-21T06:10:20.223Z,20
2018-09-21T06:10:52.397Z,20
2018-09-21T06:11:24.372Z,20
2018-09-21T06:11:56.584Z,25
2018-09-21T06:12:28.704Z,20
2018-09-21T06:13:00.690Z,15
2018-09-21T06:13:32.782Z,15
2018-09-21T06:14:04.920Z,15
2018-09-21T06:14:36.966Z,15
2018-09-21T06:15:09.076Z,15
2018-09-21T06:15:41.188Z,15
2018-09-21T06:16:13.232Z,20
2018-09-21T06:16:45.293Z,20
2018-09-21T06:17:17.360Z,20
2018-09-21T06:17:49.417Z,20
2018-09-21T06:18:21.459Z,25
2018-09-21T06:18:53.506Z,25
2018-09-21T06:19:25.800Z,20
2018-09-21T06:20:11.756Z,20
2018-09-21T06:20:29.937Z,20
2018-09-21T06:21:02.075Z,20
2018-09-21T06:21:34.055Z,20
2018-09-21T06:22:06.179Z,20
2018-09-21T06:22:45.035Z,20
2018-09-21T06:23:10.301Z,20
2018-09-21T06:23:42.327Z,20
2018-09-21T06:24:14.412Z,20
2018-09-21T06:24:46.453Z,15
2018-09-21T06:25:18.533Z,20
2018-09-21T06:25:50.609Z,20
2018-09-21T06:26:22.653Z,20
2018-09-21T06:26:54.904Z,20
2018-09-21T06:27:27.028Z,20
2018-09-21T06:27:59.033Z,20
2018-09-21T06:28:31.124Z,25
2018-09-21T06:29:03.202Z,25
2018-09-21T06:29:35.283Z,25
2018-09-21T06:30:07.299Z,25
2018-09-21T06:30:39.347Z,25
2018-09-21T06:31:11.436Z,25
2018-09-21T06:31:43.504Z,25
2018-09-21T06:32:15.568Z,25
2018-09-21T06:32:47.734Z,25
2018-09-21T06:33:19.806Z,25
2018-09-21T06:33:51.867Z,25
2018-09-21T06:34:23.899Z,25
2018-09-21T06:34:55.943Z,25
2018-09-21T06:35:28.060Z,25
2018-09-21T06:36:00.214Z,25
2018-09-21T06:36:32.449Z,25
2018-09-21T06:37:04.503Z,25
2018-09-21T06:37:36.590Z,25
2018-09-21T06:38:08.627Z,25
2018-09-21T06:38:40.675Z,25
2018-09-21T06:39:12.713Z,25
2018-09-21T06:39:44.769Z,25
2018-09-21T06:40:16.833Z,25
2018-09-21T06:40:48.885Z,25
2018-09-21T06:41:20.955Z,30
2018-09-21T06:41:53.135Z,30
2018-09-21T06:42:25.269Z,30
2018-09-21T06:42:57.421Z,30
2018-09-21T06:43:29.465Z,30
2018-09-21T06:44:01.697Z,35
2018-09-21T06:44:33.791Z,35
2018-09-21T06:45:05.918Z,35
2018-09-21T06:45:37.990Z,35
2018-09-21T06:46:10.114Z,35
2018-09-21T06:46:42.253Z,40
2018-09-21T06:47:14.300Z,40
2018-09-21T06:47:46.429Z,40
2018-09-21T06:48:18.511Z,40
2018-09-21T06:48:50.584Z,40
2018-09-21T06:49:22.681Z,40
2018-09-21T06:49:54.926Z,45
2018-09-21T06:50:26.911Z,45
2018-09-21T06:50:58.995Z,45
2018-09-21T06:51:31.032Z,45
2018-09-21T06:52:03.119Z,45
2018-09-21T06:52:35.221Z,45
2018-09-21T06:53:07.247Z,45
2018-09-21T06:53:39.263Z,50
2018-09-21T06:54:11.295Z,50
2018-09-21T06:54:44.250Z,50
2018-09-21T06:55:16.369Z,50
2018-09-21T06:55:48.497Z,50
2018-09-21T06:56:20.636Z,50
2018-09-21T06:56:52.673Z,50
2018-09-21T06:57:24.835Z,50
2018-09-21T06:57:56.871Z,50
2018-09-21T06:58:28.952Z,50
2018-09-21T06:59:01.913Z,50
2018-09-21T06:59:33.993Z,50
2018-09-21T07:00:06.074Z,50
2018-09-21T07:00:38.192Z,50
2018-09-21T07:01:10.247Z,50
2018-09-21T07:01:42.353Z,50
2018-09-21T07:02:14.367Z,50
2018-09-21T07:02:46.410Z,50
2018-09-21T07:03:18.454Z,50
2018-09-21T07:03:50.512Z,50
2018-09-21T07:04:22.553Z,50
2018-09-21T07:04:54.669Z,50
2018-09-21T07:05:26.752Z,50
2018-09-21T07:05:58.827Z,50
2018-09-21T07:06:31.017Z,55
2018-09-21T07:07:03.089Z,55
2018-09-21T07:07:35.153Z,55
2018-09-21T07:08:07.228Z,55
2018-09-21T07:08:39.251Z,55
2018-09-21T07:09:11.566Z,55
2018-09-21T07:09:43.605Z,55
2018-09-21T07:10:15.729Z,55
2018-09-21T07:10:47.788Z,50
2018-09-21T07:11:19.858Z,50
2018-09-21T07:11:51.953Z,50
2018-09-21T07:12:24.004Z,50
2018-09-21T07:12:56.196Z,50
2018-09-21T07:13:28.259Z,50
2018-09-21T07:14:00.348Z,55
2018-09-21T07:14:32.399Z,55
2018-09-21T07:15:04.707Z,55
2018-09-21T07:15:36.826Z,55
2018-09-21T07:16:09.015Z,60
2018-09-21T07:16:41.965Z,60
2018-09-21T07:17:14.131Z,60
2018-09-21T07:17:46.226Z,65
2018-09-21T07:18:18.239Z,65
2018-09-21T07:18:50.316Z,70
2018-09-21T07:19:22.395Z,70
2018-09-21T07:19:54.449Z,75
2018-09-21T07:20:26.564Z,75
2018-09-21T07:20:58.617Z,85
2018-09-21T07:21:30.746Z,90
2018-09-21T07:22:02.805Z,95
2018-09-21T07:22:34.890Z,85
2018-09-21T07:23:06.909Z,85
2018-09-21T07:23:39.012Z,80
2018-09-21T07:24:11.126Z,75
2018-09-21T07:24:43.180Z,75
2018-09-21T07:25:15.241Z,70
2018-09-21T07:25:47.314Z,70
2018-09-21T07:26:19.372Z,70
2018-09-21T07:26:52.219Z,70
2018-09-21T07:27:24.314Z,80
2018-09-21T07:27:56.391Z,85
2018-09-21T07:28:28.421Z,90
2018-09-21T07:29:00.545Z,90
2018-09-21T07:29:32.634Z,100
2018-09-21T07:30:04.651Z,95
2018-09-21T07:30:36.712Z,95
2018-09-21T07:31:08.865Z,85
2018-09-21T07:31:40.965Z,85
2018-09-21T07:32:13.528Z,90
2018-09-21T07:32:45.666Z,90
2018-09-21T07:33:17.836Z,85
2018-09-21T07:33:49.977Z,95
2018-09-21T07:34:22.034Z,90
2018-09-21T07:34:54.176Z,90
2018-09-21T07:35:26.287Z,90
2018-09-21T07:35:58.351Z,95
2018-09-21T07:36:30.488Z,100
2018-09-21T07:37:02.531Z,105
2018-09-21T07:37:34.729Z,110
2018-09-21T07:38:06.803Z,105
2018-09-21T07:38:38.905Z,105
2018-09-21T07:39:10.919Z,100
2018-09-21T07:39:42.963Z,90
2018-09-21T07:40:14.984Z,90
2018-09-21T07:40:47.098Z,85
2018-09-21T07:41:19.104Z,85
2018-09-21T07:41:51.226Z,80
2018-09-21T07:42:23.271Z,80
2018-09-21T07:42:55.407Z,75
2018-09-21T07:43:27.440Z,70
2018-09-21T07:43:59.493Z,65
2018-09-21T07:44:31.709Z,60
2018-09-21T07:45:03.832Z,55
2018-09-21T07:45:35.935Z,55
2018-09-21T07:46:08.030Z,50
2018-09-21T07:46:40.197Z,50
2018-09-21T07:47:12.223Z,45
2018-09-21T07:47:44.405Z,45
2018-09-21T07:48:16.738Z,45
2018-09-21T07:48:48.925Z,50
2018-09-21T07:49:20.984Z,50
2018-09-21T07:49:53.230Z,50